createdAt,value
2018-10-12T19:13:35.819Z,26.61
2018-10-12T19:14:35.576Z,26.71
2018-10-12T19:15:35.677Z,26.74
2018-10-12T19:16:35.552Z,26.79
2018-10-12T19:17:35.505Z,26.94
2018-10-12T19:18:35.483Z,26.96
2018-10-12T19:19:35.597Z,26.90
2018-10-12T19:20:35.454Z,26.81
2018-10-12T19:21:35.425Z,26.71
2018-10-12T19:22:35.396Z,26.53
2018-10-12T19:23:35.434Z,26.37
2018-10-12T19:24:35.425Z,26.27
2018-10-12T19:25:35.425Z,26.34
2018-10-12T19:26:35.310Z,26.34
2018-10-12T19:27:35.274Z,26.31
2018-10-12T19:28:35.255Z,26.22
2018-10-12T19:29:35.220Z,26.07
2018-10-12T19:30:35.264Z,26.09
2018-10-12T19:31:35.388Z,26.11
2018-10-12T19:32:35.166Z,26.07
2018-10-12T19:33:35.127Z,26.01
2018-10-12T19:34:35.149Z,26.06
2018-10-12T19:35:35.218Z,26.12
2018-10-12T19:36:35.056Z,26.07
2018-10-12T19:37:35.058Z,26.22
2018-10-12T19:38:35.044Z,26.39
2018-10-12T19:39:34.979Z,26.31
2018-10-12T19:40:35.028Z,26.50
2018-10-12T19:41:34.989Z,26.53
2018-10-12T19:42:34.975Z,26.56
2018-10-12T19:43:34.911Z,26.50
2018-10-12T19:44:34.920Z,26.32
2018-10-12T19:45:34.918Z,26.31
2018-10-12T19:46:35.041Z,26.42
2018-10-12T19:47:34.858Z,26.53
2018-10-12T19:48:34.803Z,26.67
2018-10-12T19:49:34.792Z,26.68
2018-10-12T19:50:34.778Z,26.79
2018-10-12T19:51:34.863Z,26.89
2018-10-12T19:52:34.700Z,26.84
2018-10-12T19:53:34.677Z,26.79
2018-10-12T19:54:34.668Z,26.82
2018-10-12T19:55:34.691Z,26.74
2018-10-12T19:56:34.685Z,26.71
2018-10-12T19:57:34.614Z,26.67
2018-10-12T19:58:34.631Z,26.71
2018-10-12T19:59:34.584Z,26.64
2018-10-12T20:00:34.595Z,26.61
2018-10-12T20:01:34.630Z,26.71
2018-10-12T20:02:34.489Z,26.84
2018-10-12T20:03:34.496Z,27.00
2018-10-12T20:04:34.469Z,26.99
2018-10-12T20:05:34.436Z,27.12
2018-10-12T20:06:34.400Z,27.34
2018-10-12T20:07:34.562Z,27.33
2018-10-12T20:08:34.369Z,27.42
2018-10-12T20:09:34.349Z,27.43
2018-10-12T20:10:34.366Z,27.57
2018-10-12T20:11:34.291Z,27.42
2018-10-12T20:12:34.259Z,27.42
2018-10-12T20:13:34.312Z,27.37
2018-10-12T20:14:34.249Z,27.15
2018-10-12T20:15:34.236Z,27.00
2018-10-12T20:16:34.699Z,26.72
2018-10-12T20:17:34.244Z,26.49
2018-10-12T20:18:34.200Z,26.31
2018-10-12T20:19:34.224Z,26.31
2018-10-12T20:20:34.095Z,26.07
2018-10-12T20:21:34.073Z,26.01
2018-10-12T20:22:34.060Z,25.97
2018-10-12T20:23:34.039Z,25.99
2018-10-12T20:24:34.154Z,25.82
2018-10-12T20:25:33.981Z,25.89
2018-10-12T20:26:33.992Z,25.78
2018-10-12T20:27:33.946Z,25.66
2018-10-12T20:28:33.961Z,25.71
2018-10-12T20:29:33.995Z,25.66
2018-10-12T20:30:33.889Z,25.71
2018-10-12T20:31:33.954Z,25.66
2018-10-12T20:32:33.844Z,25.60
2018-10-12T20:33:33.807Z,25.60
2018-10-12T20:34:33.844Z,25.49
2018-10-12T20:35:33.779Z,25.39
2018-10-12T20:36:33.743Z,25.42
2018-10-12T20:37:33.725Z,25.54
2018-10-12T20:38:33.711Z,25.44
2018-10-12T20:39:33.773Z,25.49
2018-10-12T20:40:33.651Z,25.45
2018-10-12T20:41:33.646Z,25.48
2018-10-12T20:42:33.599Z,25.57
2018-10-12T20:43:33.601Z,25.51
2018-10-12T20:44:33.631Z,25.42
2018-10-12T20:45:33.531Z,25.52
2018-10-12T20:46:33.535Z,25.63
2018-10-12T20:47:33.506Z,25.70
2018-10-12T20:48:33.461Z,25.76
2018-10-12T20:49:33.457Z,25.78
2018-10-12T20:50:33.612Z,25.74
2018-10-12T20:51:33.401Z,25.49
2018-10-12T20:52:33.397Z,25.45
2018-10-12T20:53:33.365Z,25.48
2018-10-12T20:54:33.358Z,25.48
2018-10-12T20:55:33.299Z,25.47
2018-10-12T20:56:33.523Z,25.33
2018-10-12T20:57:33.270Z,25.30
2018-10-12T20:58:33.246Z,25.29
2018-10-12T20:59:33.206Z,25.22
2018-10-12T21:00:33.251Z,25.27
2018-10-12T21:01:33.163Z,25.26
2018-10-12T21:02:33.311Z,25.22
2018-10-12T21:03:33.461Z,25.15
2018-10-12T21:04:33.361Z,25.22
2018-10-12T21:05:33.163Z,25.23
2018-10-12T21:06:33.098Z,25.29
2018-10-12T21:07:33.082Z,25.30
2018-10-12T21:08:33.357Z,25.37
2018-10-12T21:09:32.982Z,25.27
2018-10-12T21:10:32.972Z,25.32
2018-10-12T21:11:33.014Z,25.23
2018-10-12T21:12:32.922Z,25.11
2018-10-12T21:13:33.046Z,25.07
2018-10-12T21:14:32.892Z,25.11
2018-10-12T21:15:32.837Z,25.09
2018-10-12T21:16:32.830Z,25.07
2018-10-12T21:17:32.986Z,25.20
2018-10-12T21:18:33.219Z,25.11
2018-10-12T21:19:32.774Z,25.15
2018-10-12T21:20:32.773Z,25.14
2018-10-12T21:21:32.725Z,25.05
2018-10-12T21:22:32.695Z,25.15
2018-10-12T21:23:32.825Z,25.12
2018-10-12T21:24:32.629Z,25.09
2018-10-12T21:25:32.616Z,25.12
2018-10-12T21:26:32.590Z,25.08
2018-10-12T21:27:32.567Z,25.14
2018-10-12T21:28:32.530Z,25.07
2018-10-12T21:29:32.676Z,25.17
2018-10-12T21:30:32.501Z,25.14
2018-10-12T21:31:32.484Z,25.07
2018-10-12T21:32:32.463Z,25.11
2018-10-12T21:33:32.594Z,25.01
2018-10-12T21:34:32.434Z,25.12
2018-10-12T21:35:33.445Z,25.01
2018-10-12T21:36:32.860Z,25.09
2018-10-12T21:37:32.803Z,25.07
2018-10-12T21:38:32.347Z,25.07
2018-10-12T21:39:32.294Z,25.14
2018-10-12T21:40:32.270Z,25.02
2018-10-12T21:41:32.375Z,25.08
2018-10-12T21:42:32.195Z,25.00
2018-10-12T21:43:32.181Z,25.01
2018-10-12T21:44:32.172Z,25.01
2018-10-12T21:45:32.286Z,25.00
2018-10-12T21:46:32.570Z,24.97
2018-10-12T21:47:32.245Z,24.94
2018-10-12T21:48:32.215Z,24.97
2018-10-12T21:49:32.085Z,24.89
2018-10-12T21:50:32.158Z,24.86
2018-10-12T21:51:32.020Z,24.83
2018-10-12T21:52:32.227Z,24.86
2018-10-12T21:53:31.975Z,24.78
2018-10-12T21:54:31.943Z,24.78
2018-10-12T21:55:32.176Z,24.74
2018-10-12T21:56:32.222Z,24.77
2018-10-12T21:57:32.238Z,24.70
2018-10-12T21:58:32.394Z,24.71
2018-10-12T21:59:31.939Z,24.71
2018-10-12T22:00:32.840Z,24.74
2018-10-12T22:01:32.184Z,24.66
2018-10-12T22:02:32.519Z,24.61
2018-10-12T22:03:32.307Z,24.59
2018-10-12T22:04:32.053Z,24.59
2018-10-12T22:05:32.292Z,24.61
2018-10-12T22:06:32.198Z,24.64
2018-10-12T22:07:31.988Z,24.56
2018-10-12T22:08:31.748Z,24.61
2018-10-12T22:09:33.370Z,24.63
2018-10-12T22:10:31.740Z,24.61
2018-10-12T22:11:31.551Z,24.64
2018-10-12T22:12:32.368Z,24.56
2018-10-12T22:13:31.594Z,24.67
2018-10-12T22:14:31.759Z,24.66
2018-10-12T22:15:32.151Z,24.61
2018-10-12T22:16:31.570Z,24.55
2018-10-12T22:17:31.384Z,24.63
2018-10-12T22:18:31.711Z,24.67
2018-10-12T22:19:32.045Z,24.64
2018-10-12T22:20:31.741Z,24.69
2018-10-12T22:21:33.572Z,24.66
2018-10-12T22:22:31.843Z,24.61
2018-10-12T22:23:31.956Z,24.58
2018-10-12T22:24:33.359Z,24.66
2018-10-12T22:25:31.624Z,24.70
2018-10-12T22:26:31.336Z,24.69
2018-10-12T22:27:31.223Z,24.69
2018-10-12T22:28:31.226Z,24.64
2018-10-12T22:29:31.402Z,24.69
2018-10-12T22:30:31.294Z,24.69
2018-10-12T22:31:31.103Z,24.59
2018-10-12T22:32:31.071Z,24.61
2018-10-12T22:33:31.080Z,24.61
2018-10-12T22:34:30.965Z,24.64
2018-10-12T22:35:31.890Z,24.54
2018-10-12T22:36:30.918Z,24.48
2018-10-12T22:37:30.901Z,24.66
2018-10-12T22:38:30.875Z,24.66
2018-10-12T22:39:30.882Z,24.66
2018-10-12T22:40:30.960Z,24.58
2018-10-12T22:41:30.789Z,24.63
2018-10-12T22:42:30.837Z,24.54
2018-10-12T22:43:30.891Z,24.58
2018-10-12T22:44:30.787Z,24.66
2018-10-12T22:45:30.892Z,24.54
2018-10-12T22:46:30.677Z,24.49
2018-10-12T22:47:30.678Z,24.51
2018-10-12T22:48:30.632Z,24.51
2018-10-12T22:49:30.602Z,24.49
2018-10-12T22:50:30.724Z,24.49
2018-10-12T22:51:30.552Z,24.52
2018-10-12T22:52:30.539Z,24.54
2018-10-12T22:53:30.515Z,24.46
2018-10-12T22:54:30.540Z,24.49
2018-10-12T22:55:30.456Z,24.52
2018-10-12T22:56:30.626Z,24.52
2018-10-12T22:57:30.408Z,24.49
2018-10-12T22:58:30.386Z,24.49
2018-10-12T22:59:30.369Z,24.46
2018-10-12T23:00:30.325Z,24.52
2018-10-12T23:01:30.304Z,24.56
2018-10-12T23:02:30.425Z,24.49
2018-10-12T23:03:30.290Z,24.46
2018-10-12T23:04:30.231Z,24.46
2018-10-12T23:05:30.231Z,24.56
2018-10-12T23:06:30.182Z,24.49
2018-10-12T23:07:30.316Z,24.51
2018-10-12T23:08:30.138Z,24.51
2018-10-12T23:09:30.223Z,24.51
2018-10-12T23:10:30.094Z,24.55
2018-10-12T23:11:30.074Z,24.52
2018-10-12T23:12:30.230Z,24.55
2018-10-12T23:13:30.170Z,24.49
2018-10-12T23:14:29.990Z,24.52
2018-10-12T23:15:29.973Z,24.54
2018-10-12T23:16:29.992Z,24.58
2018-10-12T23:17:30.142Z,24.52
2018-10-12T23:18:29.932Z,24.51
2018-10-12T23:19:29.856Z,24.52
2018-10-12T23:20:29.838Z,24.52
2018-10-12T23:21:29.825Z,24.51
2018-10-12T23:22:29.941Z,24.55
2018-10-12T23:23:29.780Z,24.51
2018-10-12T23:24:29.745Z,24.51
2018-10-12T23:25:29.754Z,24.45
2018-10-12T23:26:29.718Z,24.51
2018-10-12T23:27:29.843Z,24.49
2018-10-12T23:28:29.651Z,24.52
2018-10-12T23:29:29.622Z,24.45
2018-10-12T23:30:29.642Z,24.54
2018-10-12T23:31:29.595Z,24.46
2018-10-12T23:32:29.561Z,24.42
2018-10-12T23:33:29.757Z,24.46
2018-10-12T23:34:29.483Z,24.44
2018-10-12T23:35:29.616Z,24.42
2018-10-12T23:36:29.602Z,24.37
2018-10-12T23:37:29.449Z,24.45
2018-10-12T23:38:29.520Z,24.39
2018-10-12T23:39:29.523Z,24.44
2018-10-12T23:40:29.361Z,24.37
2018-10-12T23:41:29.334Z,24.39
2018-10-12T23:42:29.328Z,24.36
2018-10-12T23:43:29.275Z,24.39
2018-10-12T23:44:29.257Z,24.37
2018-10-12T23:45:29.348Z,24.36
2018-10-12T23:46:29.212Z,24.37
2018-10-12T23:47:29.244Z,24.37
2018-10-12T23:48:29.166Z,24.37
2018-10-12T23:49:29.147Z,24.40
2018-10-12T23:50:29.224Z,24.34
2018-10-12T23:51:29.363Z,24.37
2018-10-12T23:52:29.085Z,24.36
2018-10-12T23:53:29.045Z,24.46
2018-10-12T23:54:29.021Z,24.44
2018-10-12T23:55:29.089Z,24.49
2018-10-12T23:56:28.970Z,24.42
2018-10-12T23:57:28.945Z,24.48
2018-10-12T23:58:28.931Z,24.44
2018-10-12T23:59:28.896Z,24.51
